createdAt,value
2023-05-19T00:03:44.184Z,9.4
2023-05-19T00:09:35.430Z,9.4
2023-05-19T00:15:12.004Z,9.4
2023-05-19T00:21:04.586Z,9.4
2023-05-19T00:26:56.817Z,9.5
2023-05-19T00:32:48.070Z,9.5
2023-05-19T00:38:40.129Z,9.5
2023-05-19T00:44:16.558Z,9.5
2023-05-19T00:49:53.081Z,9.5
2023-05-19T00:55:30.008Z,9.5
2023-05-19T01:01:06.683Z,9.4
2023-05-19T01:06:59.417Z,9.4
2023-05-19T01:18:27.924Z,9.3
2023-05-19T01:24:19.325Z,9.3
2023-05-19T01:29:55.796Z,9.3
2023-05-19T01:35:16.951Z,9.2
2023-05-19T01:40:52.657Z,9.1
2023-05-19T01:46:29.639Z,9.1
2023-05-19T01:52:07.387Z,9.1
2023-05-19T01:57:58.788Z,9
2023-05-19T02:03:35.496Z,8.9
2023-05-19T02:09:11.353Z,8.9
2023-05-19T02:15:02.534Z,8.8
2023-05-19T02:20:55.583Z,8.8
2023-05-19T02:26:31.265Z,8.8
2023-05-19T02:32:07.762Z,8.7
2023-05-19T02:37:44.460Z,8.6
2023-05-19T02:48:56.809Z,8.6
2023-05-19T02:54:18.266Z,8.6
2023-05-19T03:00:10.208Z,8.6
2023-05-19T03:05:47.277Z,8.5
2023-05-19T03:11:39.377Z,8.5
2023-05-19T03:17:15.610Z,8.4
2023-05-19T03:23:07.309Z,8.4
2023-05-19T03:28:58.906Z,8.4
2023-05-19T03:34:52.374Z,8.4
2023-05-19T03:40:43.444Z,8.4
2023-05-19T03:46:35.933Z,8.4
2023-05-19T03:52:27.073Z,8.4
2023-05-19T03:58:03.016Z,8.4
2023-05-19T04:03:56.137Z,8.5
2023-05-19T04:09:47.533Z,8.6
2023-05-19T04:15:38.119Z,8.7
2023-05-19T04:21:30.913Z,8.9
2023-05-19T04:27:22.153Z,9.3
2023-05-19T04:33:13.578Z,9.8
2023-05-19T04:38:53.250Z,10.4
2023-05-19T04:44:45.107Z,10.9
2023-05-19T04:50:37.504Z,11.6
2023-05-19T04:56:30.952Z,12.4
2023-05-19T05:02:06.733Z,13.2
2023-05-19T05:07:58.508Z,14.1
2023-05-19T05:13:50.535Z,15.2
2023-05-19T05:19:42.455Z,16.2
2023-05-19T05:25:34.203Z,17.4
2023-05-19T05:30:55.293Z,18.8
2023-05-19T05:36:32.880Z,20.2
2023-05-19T05:42:08.108Z,21.7
2023-05-19T05:48:02.665Z,23.4
2023-05-19T05:53:51.095Z,25.3
2023-05-19T05:59:26.613Z,27.2
2023-05-19T06:05:03.896Z,29.2
2023-05-19T06:10:56.751Z,31.3
2023-05-19T06:16:33.374Z,33.4
2023-05-19T06:22:10.624Z,35.4
2023-05-19T06:33:43.821Z,41.1
2023-05-19T06:39:21.096Z,39.4
2023-05-19T06:44:59.608Z,39.6
2023-05-19T06:50:36.036Z,41.7
2023-05-19T06:56:21.219Z,50.7
2023-05-19T07:02:13.365Z,50.5
2023-05-19T07:07:53.407Z,51.1
2023-05-19T07:13:31.395Z,51.5
2023-05-19T07:29:36.923Z,52.1
2023-05-19T07:35:13.507Z,52.6
2023-05-19T07:40:50.401Z,53.1
2023-05-19T07:45:56.638Z,53.5
2023-05-19T07:51:36.085Z,53.9
2023-05-19T07:56:56.410Z,54.3
2023-05-19T08:02:18.182Z,54.7
2023-05-19T08:07:55.135Z,55
2023-05-19T08:13:30.864Z,55.3
2023-05-19T08:19:07.984Z,55.7
2023-05-19T08:24:43.721Z,56.1
2023-05-19T08:30:19.327Z,56.4
2023-05-19T08:35:55.649Z,56.8
2023-05-19T08:41:16.500Z,57.1
2023-05-19T08:46:37.261Z,57.5
2023-05-19T08:52:16.515Z,57.8
2023-05-19T08:58:07.905Z,58.3
2023-05-19T09:09:41.372Z,58.9
2023-05-19T09:15:17.502Z,59.3
2023-05-19T09:20:57.205Z,59.6
2023-05-19T09:26:34.244Z,60
2023-05-19T09:32:10.332Z,60.2
2023-05-19T09:37:46.809Z,60.6
2023-05-19T09:43:38.970Z,60.9
2023-05-19T09:49:16.143Z,60.4
2023-05-19T09:54:37.193Z,60.8
2023-05-19T10:00:32.163Z,60.5
2023-05-19T10:06:10.675Z,60.1
2023-05-19T10:12:02.161Z,60.2
2023-05-19T10:17:40.186Z,59.4
2023-05-19T10:23:16.871Z,61.1
2023-05-19T10:29:08.434Z,61
2023-05-19T10:34:46.966Z,60.4
2023-05-19T10:40:24.115Z,59.7
2023-05-19T10:46:16.287Z,60.6
2023-05-19T10:52:08.499Z,59.6
2023-05-19T10:57:45.819Z,59.7
2023-05-19T11:03:42.957Z,59.6
2023-05-19T11:09:50.519Z,60.3
2023-05-19T11:15:43.593Z,59.2
2023-05-19T11:21:36.409Z,60.5
2023-05-19T11:27:31.783Z,61.1
2023-05-19T11:33:24.412Z,61.5
2023-05-19T11:39:16.928Z,61.1
2023-05-19T11:45:09.122Z,60.1
2023-05-19T11:51:20.525Z,59.1
2023-05-19T11:57:15.458Z,58.8
2023-05-19T12:03:21.912Z,59.2
2023-05-19T12:09:20.452Z,58.1
2023-05-19T12:15:14.007Z,57.2
2023-05-19T12:20:52.214Z,55.2
2023-05-19T12:26:51.893Z,51.7
2023-05-19T12:32:44.441Z,47.6
2023-05-19T12:38:37.798Z,43.7
2023-05-19T12:44:30.259Z,40.3
2023-05-19T12:50:22.328Z,37.2
2023-05-19T12:56:17.730Z,34.4
2023-05-19T13:02:26.994Z,32.6
2023-05-19T13:08:20.665Z,32.1
2023-05-19T13:14:13.296Z,31.7
2023-05-19T13:20:19.214Z,31.4
2023-05-19T13:25:40.581Z,31.2
2023-05-19T13:31:18.145Z,31.1
2023-05-19T13:37:10.210Z,31.1
2023-05-19T13:43:02.104Z,32.5
2023-05-19T13:49:05.890Z,39.7
2023-05-19T13:54:57.975Z,40.7
2023-05-19T14:00:48.868Z,41.3
2023-05-19T14:06:27.302Z,39.5
2023-05-19T14:12:04.566Z,39.6
2023-05-19T14:18:42.653Z,38.1
2023-05-19T14:24:35.131Z,38.6
2023-05-19T14:30:13.088Z,36.8
2023-05-19T14:36:09.731Z,36.6
2023-05-19T14:41:46.573Z,36.9
2023-05-19T14:47:23.979Z,37.2
2023-05-19T14:53:03.375Z,37.1
2023-05-19T14:58:51.745Z,37.9
2023-05-19T15:04:31.974Z,37.7
2023-05-19T15:10:27.234Z,37.7
2023-05-19T15:16:38.552Z,36.3
2023-05-19T15:22:30.646Z,36.8
2023-05-19T15:28:05.987Z,36.2
2023-05-19T15:33:43.281Z,37.7
2023-05-19T15:39:34.666Z,36.4
2023-05-19T15:45:25.683Z,37.3
2023-05-19T15:51:18.409Z,36.8
2023-05-19T15:56:54.331Z,36.9
2023-05-19T16:02:32.124Z,36.6
2023-05-19T16:08:25.629Z,36.4
2023-05-19T16:14:17.093Z,36.2
2023-05-19T16:19:54.429Z,35.8
2023-05-19T16:25:31.468Z,35.5
2023-05-19T16:31:07.440Z,35.2
2023-05-19T16:36:44.079Z,34.9
2023-05-19T16:42:21.943Z,34.6
2023-05-19T16:47:59.658Z,34.3
2023-05-19T16:53:51.611Z,33.9
2023-05-19T16:59:28.162Z,33.6
2023-05-19T17:05:08.825Z,33.3
2023-05-19T17:10:30.496Z,33.1
2023-05-19T17:15:51.762Z,32.8
2023-05-19T17:21:28.530Z,32.4
2023-05-19T17:27:19.479Z,31.3
2023-05-19T17:32:56.733Z,30.1
2023-05-19T17:38:35.665Z,28.8
2023-05-19T17:44:26.397Z,27.6
2023-05-19T17:50:02.908Z,26.4
2023-05-19T17:55:23.576Z,25.4
2023-05-19T18:00:28.398Z,24.6
2023-05-19T18:06:06.595Z,23.9
2023-05-19T18:11:45.821Z,23.1
2023-05-19T18:17:21.728Z,22.5
2023-05-19T18:22:58.779Z,21.9
2023-05-19T18:28:34.901Z,21.4
2023-05-19T18:33:55.516Z,20.9
2023-05-19T18:39:16.086Z,20.4
2023-05-19T18:44:36.857Z,20
2023-05-19T18:49:41.800Z,19.7
2023-05-19T18:54:47.299Z,19.3
2023-05-19T18:59:53.566Z,18.9
2023-05-19T19:10:19.497Z,18.4
2023-05-19T19:15:57.731Z,18
2023-05-19T19:21:33.766Z,17.7
2023-05-19T19:27:09.879Z,17.4
2023-05-19T19:32:46.810Z,17.1
2023-05-19T19:38:24.475Z,16.9
2023-05-19T19:44:01.093Z,16.6
2023-05-19T19:49:53.361Z,16.4
2023-05-19T19:55:28.647Z,16.1
2023-05-19T20:01:04.483Z,15.9
2023-05-19T20:07:00.800Z,15.6
2023-05-19T20:12:21.220Z,15.4
2023-05-19T20:17:58.960Z,15.2
2023-05-19T20:23:37.086Z,15
2023-05-19T20:29:35.680Z,14.8
2023-05-19T20:35:13.927Z,14.6
2023-05-19T20:40:34.227Z,14.4
2023-05-19T20:46:10.355Z,14.3
2023-05-19T20:51:47.043Z,14.1
2023-05-19T20:57:23.269Z,14
2023-05-19T21:03:14.601Z,13.9
2023-05-19T21:08:51.447Z,13.8
2023-05-19T21:14:27.527Z,13.6
2023-05-19T21:20:18.665Z,13.5
2023-05-19T21:25:55.286Z,13.4
2023-05-19T21:31:47.060Z,13.3
2023-05-19T21:37:22.607Z,13.1
2023-05-19T21:43:25.675Z,12.9
2023-05-19T21:54:55.440Z,12.7
2023-05-19T22:00:47.320Z,12.5
2023-05-19T22:06:40.015Z,12.3
2023-05-19T22:12:30.292Z,12
2023-05-19T22:24:11.297Z,11.6
2023-05-19T22:30:02.777Z,11.4
2023-05-19T22:35:57.738Z,11.2
2023-05-19T22:41:50.126Z,11.1
2023-05-19T22:47:42.536Z,10.9
2023-05-19T22:53:37.068Z,10.8
2023-05-19T22:59:28.888Z,10.7
2023-05-19T23:05:19.982Z,10.6
2023-05-19T23:11:11.030Z,10.4
2023-05-19T23:17:03.432Z,10.3
2023-05-19T23:22:55.632Z,10.1
2023-05-19T23:28:47.740Z,9.9
2023-05-19T23:34:41.431Z,9.8
2023-05-19T23:40:32.253Z,9.6
2023-05-19T23:46:23.842Z,9.5
2023-05-19T23:52:15.523Z,9.3
2023-05-19T23:58:07.393Z,9.2
